createdAt,value
2022-08-03T00:02:25.514Z,20.50
2022-08-03T00:04:57.357Z,20.47
2022-08-03T00:07:28.783Z,20.32
2022-08-03T00:10:00.543Z,20.34
2022-08-03T00:12:32.068Z,20.34
2022-08-03T00:15:03.488Z,20.52
2022-08-03T00:17:52.650Z,20.59
2022-08-03T00:20:25.671Z,20.45
2022-08-03T00:22:57.440Z,20.42
2022-08-03T00:25:30.020Z,20.27
2022-08-03T00:28:01.740Z,20.09
2022-08-03T00:30:33.483Z,19.86
2022-08-03T00:33:05.392Z,19.89
2022-08-03T00:35:50.461Z,19.93
2022-08-03T00:38:22.993Z,19.71
2022-08-03T00:40:54.536Z,19.64
2022-08-03T00:43:28.481Z,19.61
2022-08-03T00:45:59.803Z,19.55
2022-08-03T00:48:33.707Z,19.50
2022-08-03T00:51:06.289Z,19.60
2022-08-03T00:53:38.662Z,19.61
2022-08-03T00:56:11.183Z,19.53
2022-08-03T00:58:43.318Z,19.68
2022-08-03T01:01:15.657Z,19.64
2022-08-03T01:03:47.821Z,19.45
2022-08-03T01:06:33.935Z,19.46
2022-08-03T01:09:11.278Z,19.51
2022-08-03T01:12:00.910Z,19.52
2022-08-03T01:14:40.339Z,19.40
2022-08-03T01:17:18.490Z,19.28
2022-08-03T01:20:01.876Z,19.32
2022-08-03T01:22:52.726Z,19.29
2022-08-03T01:25:36.750Z,19.25
2022-08-03T01:28:36.074Z,19.37
2022-08-03T01:31:14.164Z,19.36
2022-08-03T01:33:51.419Z,19.26
2022-08-03T01:36:31.970Z,19.07
2022-08-03T01:39:09.825Z,18.89
2022-08-03T01:41:50.696Z,18.86
2022-08-03T01:44:30.182Z,18.79
2022-08-03T01:47:07.897Z,18.83
2022-08-03T01:49:46.131Z,18.85
2022-08-03T01:52:22.952Z,18.87
2022-08-03T01:54:57.758Z,18.75
2022-08-03T01:57:33.105Z,18.68
2022-08-03T02:00:28.387Z,18.84
2022-08-03T02:03:04.492Z,18.93
2022-08-03T02:05:41.459Z,19.07
2022-08-03T02:08:20.081Z,19.19
2022-08-03T02:10:54.414Z,19.20
2022-08-03T02:13:30.759Z,19.12
2022-08-03T02:16:07.730Z,19.05
2022-08-03T02:18:42.604Z,19.01
2022-08-03T02:21:55.785Z,18.94
2022-08-03T02:24:11.552Z,19.01
2022-08-03T02:26:46.534Z,19.06
2022-08-03T02:29:38.822Z,19.03
2022-08-03T02:32:19.789Z,19.06
2022-08-03T02:34:56.547Z,19.14
2022-08-03T02:37:33.825Z,19.14
2022-08-03T02:40:10.243Z,19.09
2022-08-03T02:42:46.161Z,19.01
2022-08-03T02:45:22.663Z,19.09
2022-08-03T02:48:02.444Z,19.03
2022-08-03T02:50:37.190Z,19.03
2022-08-03T02:53:12.889Z,19.04
2022-08-03T02:55:48.816Z,19.03
2022-08-03T02:58:25.931Z,19.13
2022-08-03T03:01:00.609Z,19.12
2022-08-03T03:03:44.639Z,19.09
2022-08-03T03:06:19.500Z,19.00
2022-08-03T03:08:59.451Z,19.04
2022-08-03T03:11:32.365Z,18.92
2022-08-03T03:14:04.374Z,19.01
2022-08-03T03:16:41.685Z,19.04
2022-08-03T03:19:15.811Z,18.98
2022-08-03T03:21:47.981Z,18.80
2022-08-03T03:24:19.790Z,18.76
2022-08-03T03:26:51.865Z,18.82
2022-08-03T03:29:23.616Z,18.86
2022-08-03T03:31:55.787Z,18.86
2022-08-03T03:34:32.322Z,19.01
2022-08-03T03:37:09.265Z,19.11
2022-08-03T03:39:44.955Z,19.10
2022-08-03T03:42:16.733Z,18.99
2022-08-03T03:44:48.825Z,19.19
2022-08-03T03:47:32.703Z,19.35
2022-08-03T03:50:07.134Z,19.64
2022-08-03T03:52:39.433Z,19.59
2022-08-03T03:55:11.886Z,19.50
2022-08-03T03:57:43.437Z,19.46
2022-08-03T04:00:18.222Z,19.61
2022-08-03T04:02:50.264Z,19.58
2022-08-03T04:05:42.996Z,19.60
2022-08-03T04:08:36.388Z,19.75
2022-08-03T04:11:13.188Z,19.89
2022-08-03T04:13:51.252Z,19.91
2022-08-03T04:16:26.785Z,19.81
2022-08-03T04:19:03.315Z,19.75
2022-08-03T04:21:39.725Z,19.72
2022-08-03T04:24:15.228Z,19.75
2022-08-03T04:26:52.921Z,19.67
2022-08-03T04:29:27.591Z,19.58
2022-08-03T04:32:01.631Z,19.58
2022-08-03T04:34:35.234Z,19.84
2022-08-03T04:37:12.579Z,20.02
2022-08-03T04:39:46.177Z,20.09
2022-08-03T04:42:19.327Z,20.19
2022-08-03T04:44:52.283Z,20.47
2022-08-03T04:47:24.593Z,20.59
2022-08-03T04:49:56.959Z,20.88
2022-08-03T04:52:29.126Z,21.13
2022-08-03T04:55:00.770Z,21.29
2022-08-03T04:57:32.167Z,21.44
2022-08-03T05:00:03.870Z,21.81
2022-08-03T05:02:35.511Z,22.15
2022-08-03T05:05:07.611Z,22.35
2022-08-03T05:07:39.447Z,22.75
2022-08-03T05:10:15.759Z,22.99
2022-08-03T05:12:49.295Z,23.26
2022-08-03T05:15:20.973Z,23.60
2022-08-03T05:17:52.847Z,23.85
2022-08-03T05:20:24.394Z,23.98
2022-08-03T05:22:55.830Z,24.05
2022-08-03T05:25:27.655Z,24.16
2022-08-03T05:27:59.079Z,24.50
2022-08-03T05:30:33.828Z,24.63
2022-08-03T05:33:06.859Z,24.51
2022-08-03T05:36:00.819Z,24.34
2022-08-03T05:38:34.721Z,24.38
2022-08-03T05:41:22.294Z,24.64
2022-08-03T05:43:56.856Z,25.03
2022-08-03T05:46:28.577Z,25.27
2022-08-03T05:49:00.573Z,25.35
2022-08-03T05:51:32.007Z,25.46
2022-08-03T05:54:04.142Z,25.62
2022-08-03T05:56:35.628Z,25.79
2022-08-03T05:59:28.687Z,25.86
2022-08-03T06:01:58.759Z,26.16
2022-08-03T06:04:30.530Z,26.43
2022-08-03T06:07:02.138Z,26.74
2022-08-03T06:10:34.171Z,26.97
2022-08-03T06:12:25.662Z,27.13
2022-08-03T06:14:57.123Z,27.35
2022-08-03T06:17:28.787Z,27.21
2022-08-03T06:20:10.811Z,27.02
2022-08-03T06:22:50.801Z,26.70
2022-08-03T06:25:23.971Z,26.53
2022-08-03T06:27:55.688Z,26.60
2022-08-03T06:30:27.514Z,26.47
2022-08-03T06:32:59.334Z,26.20
2022-08-03T06:35:30.958Z,26.29
2022-08-03T06:38:03.097Z,26.40
2022-08-03T06:40:40.301Z,26.54
2022-08-03T06:43:12.845Z,26.77
2022-08-03T06:45:48.171Z,27.06
2022-08-03T06:48:20.090Z,27.39
2022-08-03T06:50:51.616Z,27.71
2022-08-03T06:53:23.358Z,27.83
2022-08-03T06:55:55.485Z,27.89
2022-08-03T06:58:27.268Z,27.96
2022-08-03T07:00:59.426Z,28.01
2022-08-03T07:03:30.912Z,27.98
2022-08-03T07:06:02.431Z,28.21
2022-08-03T07:08:34.991Z,28.42
2022-08-03T07:11:06.521Z,28.59
2022-08-03T07:13:38.491Z,28.81
2022-08-03T07:16:11.263Z,29.03
2022-08-03T07:18:43.439Z,28.98
2022-08-03T07:21:17.021Z,29.03
2022-08-03T07:23:48.563Z,29.00
2022-08-03T07:26:20.135Z,28.96
2022-08-03T07:28:52.119Z,29.10
2022-08-03T07:31:23.756Z,29.10
2022-08-03T07:33:55.342Z,29.01
2022-08-03T07:36:27.326Z,29.17
2022-08-03T07:38:59.707Z,29.28
2022-08-03T07:41:32.228Z,29.33
2022-08-03T07:44:03.727Z,29.18
2022-08-03T07:46:35.292Z,28.97
2022-08-03T07:49:07.223Z,29.01
2022-08-03T07:51:39.101Z,29.04
2022-08-03T07:54:11.651Z,29.10
2022-08-03T07:56:44.136Z,28.87
2022-08-03T07:59:15.607Z,28.74
2022-08-03T08:01:47.802Z,28.66
2022-08-03T08:04:19.277Z,28.36
2022-08-03T08:06:50.761Z,28.36
2022-08-03T08:09:22.310Z,28.39
2022-08-03T08:11:54.765Z,28.46
2022-08-03T08:14:26.591Z,28.46
2022-08-03T08:16:58.352Z,28.29
2022-08-03T08:19:30.168Z,28.09
2022-08-03T08:22:05.038Z,28.04
2022-08-03T08:24:37.376Z,27.95
2022-08-03T08:27:12.298Z,27.95
2022-08-03T08:29:47.941Z,27.77
2022-08-03T08:32:27.062Z,27.56
2022-08-03T08:34:58.695Z,27.40
2022-08-03T08:37:30.290Z,27.27
2022-08-03T08:40:02.020Z,27.24
2022-08-03T08:42:34.570Z,27.22
2022-08-03T08:45:09.200Z,27.18
2022-08-03T08:47:51.034Z,27.36
2022-08-03T08:50:27.890Z,27.48
2022-08-03T08:53:02.061Z,27.54
2022-08-03T08:55:58.624Z,27.71
2022-08-03T08:58:30.421Z,27.99
2022-08-03T09:01:00.431Z,28.31
2022-08-03T09:03:34.484Z,28.50
2022-08-03T09:06:07.084Z,28.65
2022-08-03T09:08:38.551Z,28.72
2022-08-03T09:11:12.049Z,28.69
2022-08-03T09:13:44.511Z,28.80
2022-08-03T09:16:21.323Z,28.83
2022-08-03T09:18:54.768Z,28.85
2022-08-03T09:21:32.524Z,28.96
2022-08-03T09:24:13.111Z,29.14
2022-08-03T09:26:54.541Z,29.28
2022-08-03T09:29:26.823Z,29.46
2022-08-03T09:32:04.376Z,29.76
2022-08-03T09:34:36.113Z,29.82
2022-08-03T09:37:17.643Z,29.93
2022-08-03T09:39:50.036Z,29.97
2022-08-03T09:42:23.776Z,29.89
2022-08-03T09:44:55.742Z,29.95
2022-08-03T09:47:34.051Z,30.02
2022-08-03T09:50:07.399Z,30.03
2022-08-03T09:52:51.881Z,29.97
2022-08-03T09:56:34.219Z,29.76
2022-08-03T09:58:16.958Z,29.61
2022-08-03T10:00:59.459Z,29.67
2022-08-03T10:03:32.792Z,29.72
2022-08-03T10:06:19.725Z,29.86
2022-08-03T10:09:06.035Z,29.97
2022-08-03T10:11:41.850Z,30.14
2022-08-03T10:14:19.697Z,30.33
2022-08-03T10:16:51.816Z,30.39
2022-08-03T10:19:23.420Z,30.40
2022-08-03T10:21:59.596Z,30.43
2022-08-03T10:24:36.033Z,30.34
2022-08-03T10:27:08.898Z,30.36
2022-08-03T10:29:47.869Z,30.37
2022-08-03T10:32:23.651Z,30.43
2022-08-03T10:34:59.889Z,30.46
2022-08-03T10:37:34.333Z,30.33
2022-08-03T10:40:08.601Z,30.07
2022-08-03T10:42:40.614Z,30.07
2022-08-03T10:45:20.161Z,29.91
2022-08-03T10:47:53.070Z,29.66
2022-08-03T10:50:27.441Z,29.55
2022-08-03T10:53:04.041Z,29.52
2022-08-03T10:55:55.405Z,29.58
2022-08-03T10:58:57.521Z,29.69
2022-08-03T11:02:00.173Z,29.79
2022-08-03T11:04:33.083Z,29.87
2022-08-03T11:07:25.622Z,29.94
2022-08-03T11:09:58.631Z,29.79
2022-08-03T11:12:32.513Z,29.74
2022-08-03T11:15:08.966Z,29.83
2022-08-03T11:17:46.204Z,29.77
2022-08-03T11:20:47.753Z,29.83
2022-08-03T11:24:03.469Z,29.88
2022-08-03T11:26:19.857Z,29.81
2022-08-03T11:28:51.888Z,29.67
2022-08-03T11:31:51.645Z,29.77
2022-08-03T11:34:24.951Z,29.86
2022-08-03T11:37:32.870Z,29.94
2022-08-03T11:40:05.619Z,29.99
2022-08-03T11:42:47.618Z,29.95
2022-08-03T11:45:20.162Z,29.93
2022-08-03T11:47:54.666Z,30.05
2022-08-03T11:50:27.048Z,30.08
2022-08-03T11:52:58.832Z,30.06
2022-08-03T11:55:32.533Z,30.08
2022-08-03T11:59:00.814Z,30.00
2022-08-03T12:01:04.928Z,29.92
2022-08-03T12:03:38.296Z,30.00
2022-08-03T12:06:13.506Z,29.86
2022-08-03T12:08:46.225Z,29.70
2022-08-03T12:11:19.246Z,29.70
2022-08-03T12:14:36.756Z,29.74
2022-08-03T12:16:48.620Z,29.95
2022-08-03T12:19:21.327Z,30.09
2022-08-03T12:21:57.109Z,30.21
2022-08-03T12:24:41.451Z,30.33
2022-08-03T12:27:13.685Z,30.23
2022-08-03T12:29:58.774Z,30.13
2022-08-03T12:32:31.748Z,30.10
2022-08-03T12:35:06.260Z,30.07
2022-08-03T12:37:38.411Z,29.88
2022-08-03T12:40:17.764Z,29.80
2022-08-03T12:42:51.857Z,29.75
2022-08-03T12:45:25.302Z,29.64
2022-08-03T12:47:59.785Z,29.84
2022-08-03T12:50:33.839Z,29.99
2022-08-03T12:53:07.960Z,29.98
2022-08-03T12:55:57.285Z,29.85
2022-08-03T12:58:37.023Z,29.80
2022-08-03T13:01:10.810Z,29.73
2022-08-03T13:03:50.394Z,29.64
2022-08-03T13:06:25.950Z,29.75
2022-08-03T13:09:08.259Z,29.75
2022-08-03T13:11:55.602Z,29.69
2022-08-03T13:14:31.879Z,29.87
2022-08-03T13:17:04.207Z,29.99
2022-08-03T13:19:36.886Z,29.96
2022-08-03T13:22:16.381Z,29.97
2022-08-03T13:24:49.900Z,29.91
2022-08-03T13:28:01.464Z,29.90
2022-08-03T13:30:14.505Z,29.96
2022-08-03T13:32:56.683Z,30.05
2022-08-03T13:35:31.173Z,30.21
2022-08-03T13:38:02.815Z,30.26
2022-08-03T13:40:41.661Z,30.36
2022-08-03T13:43:13.903Z,30.38
2022-08-03T13:45:51.265Z,30.28
2022-08-03T13:48:37.657Z,30.19
2022-08-03T13:51:11.664Z,30.27
2022-08-03T13:53:54.389Z,30.18
2022-08-03T13:56:26.246Z,30.16
2022-08-03T13:58:58.244Z,30.19
2022-08-03T14:01:53.612Z,30.11
2022-08-03T14:04:22.536Z,30.14
2022-08-03T14:06:54.255Z,30.18
2022-08-03T14:09:25.931Z,30.12
2022-08-03T14:12:07.603Z,30.28
2022-08-03T14:14:40.283Z,30.34
2022-08-03T14:17:12.138Z,30.31
2022-08-03T14:19:52.673Z,30.30
2022-08-03T14:22:25.355Z,30.35
2022-08-03T14:24:56.902Z,30.58
2022-08-03T14:27:29.227Z,30.64
2022-08-03T14:30:01.835Z,30.69
2022-08-03T14:32:33.952Z,30.48
2022-08-03T14:35:05.782Z,30.46
2022-08-03T14:37:37.656Z,30.46
2022-08-03T14:40:11.859Z,30.54
2022-08-03T14:42:43.329Z,30.37
2022-08-03T14:45:19.825Z,30.27
2022-08-03T14:50:30.562Z,30.26
2022-08-03T14:50:50.292Z,30.25
2022-08-03T14:53:25.765Z,30.17
2022-08-03T14:55:57.649Z,30.17
2022-08-03T14:58:29.272Z,30.15
2022-08-03T15:01:00.865Z,30.04
2022-08-03T15:03:32.391Z,30.00
2022-08-03T15:06:03.961Z,29.94
2022-08-03T15:08:35.628Z,29.99
2022-08-03T15:11:07.317Z,29.89
2022-08-03T15:13:39.318Z,29.90
2022-08-03T15:16:11.262Z,29.92
2022-08-03T15:18:42.764Z,29.91
2022-08-03T15:21:45.870Z,29.96
2022-08-03T15:24:07.471Z,30.18
2022-08-03T15:26:41.518Z,30.13
2022-08-03T15:30:07.283Z,30.10
2022-08-03T15:32:09.403Z,30.04
2022-08-03T15:34:41.911Z,29.95
2022-08-03T15:37:22.510Z,29.92
2022-08-03T15:39:59.659Z,29.91
2022-08-03T15:42:34.685Z,29.97
2022-08-03T15:45:07.713Z,29.78
2022-08-03T15:47:39.864Z,29.59
2022-08-03T15:50:12.829Z,29.59
2022-08-03T15:52:44.887Z,29.57
2022-08-03T15:55:18.262Z,29.49
2022-08-03T15:59:09.578Z,29.54
2022-08-03T16:00:44.778Z,29.70
2022-08-03T16:03:16.329Z,29.61
2022-08-03T16:05:48.388Z,29.62
2022-08-03T16:08:20.015Z,29.58
2022-08-03T16:10:52.235Z,29.70
2022-08-03T16:14:14.090Z,29.58
2022-08-03T16:16:17.023Z,29.61
2022-08-03T16:18:48.745Z,29.65
2022-08-03T16:21:21.750Z,29.62
2022-08-03T16:23:55.794Z,29.48
2022-08-03T16:26:29.519Z,29.48
2022-08-03T16:29:03.841Z,29.53
2022-08-03T16:31:55.055Z,29.45
2022-08-03T16:34:26.912Z,29.32
2022-08-03T16:36:58.781Z,29.31
2022-08-03T16:39:30.823Z,29.35
2022-08-03T16:42:03.628Z,29.18
2022-08-03T16:44:36.991Z,29.06
2022-08-03T16:47:09.011Z,29.00
2022-08-03T16:49:56.432Z,28.90
2022-08-03T16:52:30.209Z,28.91
2022-08-03T16:55:02.169Z,28.88
2022-08-03T16:57:58.981Z,28.84
2022-08-03T17:00:32.991Z,28.72
2022-08-03T17:03:12.384Z,28.77
2022-08-03T17:05:52.305Z,28.82
2022-08-03T17:08:26.692Z,28.86
2022-08-03T17:10:59.185Z,28.73
2022-08-03T17:13:39.347Z,28.60
2022-08-03T17:16:15.348Z,28.71
2022-08-03T17:18:53.637Z,28.71
2022-08-03T17:21:30.995Z,28.66
2022-08-03T17:24:12.328Z,28.62
2022-08-03T17:26:49.907Z,28.56
2022-08-03T17:29:25.296Z,28.49
2022-08-03T17:32:06.569Z,28.43
2022-08-03T17:34:44.658Z,28.45
2022-08-03T17:37:49.914Z,28.42
2022-08-03T17:40:12.114Z,28.39
2022-08-03T17:42:50.983Z,28.27
2022-08-03T17:45:23.394Z,28.18
2022-08-03T17:48:18.532Z,28.16
2022-08-03T17:50:57.071Z,28.06
2022-08-03T17:53:34.021Z,27.99
2022-08-03T17:56:40.791Z,27.87
2022-08-03T17:59:15.540Z,27.70
2022-08-03T18:02:26.465Z,27.81
2022-08-03T18:05:16.730Z,27.72
2022-08-03T18:08:01.572Z,27.57
2022-08-03T18:10:49.893Z,27.58
2022-08-03T18:13:25.781Z,27.61
2022-08-03T18:16:04.979Z,27.45
2022-08-03T18:18:41.019Z,27.34
2022-08-03T18:21:22.762Z,27.38
2022-08-03T18:23:56.565Z,27.33
2022-08-03T18:26:31.993Z,27.41
2022-08-03T18:29:05.282Z,27.49
2022-08-03T18:32:03.107Z,27.45
2022-08-03T18:34:53.146Z,27.42
2022-08-03T18:37:27.263Z,27.23
2022-08-03T18:40:01.843Z,27.08
2022-08-03T18:42:34.259Z,26.98
2022-08-03T18:45:14.795Z,26.85
2022-08-03T18:48:11.897Z,26.78
2022-08-03T18:50:49.853Z,26.84
2022-08-03T18:54:02.183Z,26.74
2022-08-03T18:56:28.752Z,26.66
2022-08-03T18:59:06.356Z,26.66
2022-08-03T19:01:59.622Z,26.52
2022-08-03T19:04:37.837Z,26.51
2022-08-03T19:07:14.237Z,26.48
2022-08-03T19:09:52.787Z,26.37
2022-08-03T19:12:31.109Z,26.43
2022-08-03T19:15:13.135Z,26.35
2022-08-03T19:17:50.318Z,26.23
2022-08-03T19:20:32.462Z,26.12
2022-08-03T19:23:04.495Z,25.92
2022-08-03T19:25:41.459Z,25.78
2022-08-03T19:28:13.956Z,25.65
2022-08-03T19:30:53.602Z,25.73
2022-08-03T19:33:29.796Z,25.75
2022-08-03T19:36:01.797Z,25.68
2022-08-03T19:38:35.835Z,25.60
2022-08-03T19:41:14.456Z,25.45
2022-08-03T19:43:57.781Z,25.47
2022-08-03T19:46:32.264Z,25.63
2022-08-03T19:49:14.489Z,25.54
2022-08-03T19:52:01.659Z,25.45
2022-08-03T19:54:52.970Z,25.48
2022-08-03T19:57:28.057Z,25.37
2022-08-03T20:00:03.501Z,25.35
2022-08-03T20:02:43.079Z,25.32
2022-08-03T20:05:15.829Z,25.32
2022-08-03T20:07:48.708Z,25.33
2022-08-03T20:10:21.844Z,25.31
2022-08-03T20:12:54.035Z,25.24
2022-08-03T20:15:31.691Z,25.10
2022-08-03T20:18:04.022Z,25.09
2022-08-03T20:20:43.290Z,24.97
2022-08-03T20:23:20.140Z,24.96
2022-08-03T20:25:59.461Z,25.02
2022-08-03T20:28:50.069Z,24.98
2022-08-03T20:31:32.632Z,24.92
2022-08-03T20:34:09.196Z,24.89
2022-08-03T20:36:41.807Z,24.93
2022-08-03T20:39:14.349Z,24.85
2022-08-03T20:41:46.030Z,24.57
2022-08-03T20:44:17.609Z,24.53
2022-08-03T20:46:53.178Z,24.58
2022-08-03T20:49:46.244Z,24.40
2022-08-03T20:52:18.431Z,24.37
2022-08-03T20:54:51.136Z,24.24
2022-08-03T20:57:23.623Z,24.25
2022-08-03T20:59:57.233Z,24.26
2022-08-03T21:02:31.054Z,24.33
2022-08-03T21:05:08.466Z,24.27
2022-08-03T21:08:05.409Z,24.17
2022-08-03T21:10:42.075Z,24.09
2022-08-03T21:16:02.644Z,24.01
2022-08-03T21:18:48.053Z,23.96
2022-08-03T21:21:22.435Z,24.01
2022-08-03T21:23:56.508Z,24.10
2022-08-03T21:26:29.153Z,23.94
2022-08-03T21:29:01.177Z,23.91
2022-08-03T21:31:32.744Z,23.86
2022-08-03T21:34:06.408Z,23.88
2022-08-03T21:36:39.381Z,23.92
2022-08-03T21:39:13.684Z,23.90
2022-08-03T21:41:43.424Z,23.80
2022-08-03T21:44:17.861Z,23.58
2022-08-03T21:46:57.151Z,23.48
2022-08-03T21:50:02.717Z,23.46
2022-08-03T21:52:25.432Z,23.55
2022-08-03T21:55:01.948Z,23.67
2022-08-03T21:57:37.702Z,23.63
2022-08-03T22:00:15.463Z,23.53
2022-08-03T22:02:54.517Z,23.39
2022-08-03T22:05:44.037Z,23.40
2022-08-03T22:08:16.148Z,23.32
2022-08-03T22:10:49.375Z,23.26
2022-08-03T22:13:44.296Z,23.26
2022-08-03T22:16:15.172Z,23.24
2022-08-03T22:18:48.232Z,23.17
2022-08-03T22:21:27.953Z,23.11
2022-08-03T22:24:08.839Z,23.07
2022-08-03T22:27:04.410Z,23.05
2022-08-03T22:29:38.548Z,23.05
2022-08-03T22:32:11.032Z,23.09
2022-08-03T22:34:47.219Z,23.08
2022-08-03T22:37:21.020Z,22.99
2022-08-03T22:39:54.432Z,22.99
2022-08-03T22:42:28.174Z,23.03
2022-08-03T22:44:59.533Z,23.03
2022-08-03T22:47:33.860Z,22.99
2022-08-03T22:50:33.063Z,22.97
2022-08-03T22:52:57.504Z,23.02
2022-08-03T22:55:30.852Z,22.84
2022-08-03T22:58:02.349Z,22.70
2022-08-03T23:00:33.958Z,22.64
2022-08-03T23:03:07.886Z,22.57
2022-08-03T23:06:00.362Z,22.56
2022-08-03T23:08:37.459Z,22.48
2022-08-03T23:11:11.565Z,22.45
2022-08-03T23:13:43.747Z,22.40
2022-08-03T23:16:17.009Z,22.40
2022-08-03T23:19:16.788Z,22.45
2022-08-03T23:22:02.500Z,22.42
2022-08-03T23:24:37.370Z,22.36
2022-08-03T23:27:10.024Z,22.41
2022-08-03T23:29:44.139Z,22.27
2022-08-03T23:32:16.694Z,22.32
2022-08-03T23:35:06.861Z,22.22
2022-08-03T23:38:10.762Z,22.26
2022-08-03T23:40:32.737Z,22.13
2022-08-03T23:43:05.115Z,22.05
2022-08-03T23:45:38.190Z,21.87
2022-08-03T23:48:10.324Z,21.89
2022-08-03T23:50:47.680Z,21.85
2022-08-03T23:53:23.594Z,21.72
2022-08-03T23:56:14.109Z,21.65
2022-08-03T23:58:56.169Z,21.60
